createdAt,value
2023-10-05T00:01:26.172Z,5.23
2023-10-05T00:03:53.712Z,5.40
2023-10-05T00:06:25.129Z,5.73
2023-10-05T00:08:54.264Z,5.23
2023-10-05T00:11:31.658Z,6.27
2023-10-05T00:14:05.048Z,5.17
2023-10-05T00:16:37.880Z,5.93
2023-10-05T00:19:14.010Z,5.83
2023-10-05T00:21:53.745Z,5.90
2023-10-05T00:24:30.628Z,6.13
2023-10-05T00:26:59.394Z,6.17
2023-10-05T00:29:29.694Z,6.27
2023-10-05T00:32:01.403Z,5.60
2023-10-05T00:34:29.588Z,5.77
2023-10-05T00:36:59.854Z,5.67
2023-10-05T00:39:32.154Z,5.43
2023-10-05T00:42:05.202Z,5.73
2023-10-05T00:44:33.943Z,5.40
2023-10-05T00:47:06.557Z,5.30
2023-10-05T00:49:46.853Z,5.27
2023-10-05T00:52:19.110Z,5.60
2023-10-05T00:54:49.671Z,5.23
2023-10-05T00:57:20.266Z,5.90
2023-10-05T00:59:48.595Z,5.23
2023-10-05T01:02:16.056Z,5.73
2023-10-05T01:04:47.368Z,6.03
2023-10-05T01:07:27.817Z,6.40
2023-10-05T01:10:02.362Z,5.70
2023-10-05T01:12:39.466Z,6.17
2023-10-05T01:15:11.578Z,5.63
2023-10-05T01:17:38.824Z,5.70
2023-10-05T01:20:13.821Z,5.87
2023-10-05T01:22:41.038Z,6.50
2023-10-05T01:25:10.081Z,5.70
2023-10-05T01:27:41.643Z,5.53
2023-10-05T01:30:10.503Z,5.80
2023-10-05T01:32:37.354Z,5.50
2023-10-05T01:35:12.350Z,5.37
2023-10-05T01:37:41.399Z,5.00
2023-10-05T01:40:34.773Z,5.60
2023-10-05T01:43:01.436Z,5.90
2023-10-05T01:45:34.807Z,5.30
2023-10-05T01:48:05.800Z,4.90
2023-10-05T01:50:33.597Z,5.70
2023-10-05T01:53:16.657Z,5.47
2023-10-05T01:55:46.662Z,5.17
2023-10-05T01:58:26.993Z,5.07
2023-10-05T02:00:55.385Z,4.93
2023-10-05T02:03:25.431Z,5.10
2023-10-05T02:05:57.952Z,5.50
2023-10-05T02:08:24.753Z,5.47
2023-10-05T02:10:51.819Z,5.00
2023-10-05T02:13:19.071Z,5.60
2023-10-05T02:15:50.142Z,5.47
2023-10-05T02:18:25.832Z,4.87
2023-10-05T02:20:58.137Z,5.20
2023-10-05T02:23:27.524Z,5.20
2023-10-05T02:25:58.668Z,5.03
2023-10-05T02:28:28.355Z,5.50
2023-10-05T02:31:00.831Z,5.30
2023-10-05T02:33:32.973Z,5.10
2023-10-05T02:36:12.920Z,5.20
2023-10-05T02:38:40.590Z,5.30
2023-10-05T02:41:08.447Z,5.00
2023-10-05T02:43:41.877Z,5.07
2023-10-05T02:46:12.674Z,4.63
2023-10-05T02:48:42.667Z,5.30
2023-10-05T02:51:12.541Z,4.93
2023-10-05T02:53:42.637Z,5.00
2023-10-05T02:56:28.024Z,5.30
2023-10-05T02:58:57.846Z,5.20
2023-10-05T03:01:24.650Z,5.37
2023-10-05T03:03:52.839Z,4.77
2023-10-05T03:06:23.695Z,5.23
2023-10-05T03:08:51.031Z,5.17
2023-10-05T03:11:19.482Z,5.13
2023-10-05T03:13:48.216Z,4.90
2023-10-05T03:16:18.233Z,4.80
2023-10-05T03:18:46.171Z,4.80
2023-10-05T03:21:14.978Z,4.70
2023-10-05T03:23:42.511Z,4.87
2023-10-05T03:26:11.719Z,4.90
2023-10-05T03:28:39.315Z,4.90
2023-10-05T03:31:25.333Z,4.93
2023-10-05T03:33:53.566Z,5.17
2023-10-05T03:36:21.034Z,5.80
2023-10-05T03:38:56.664Z,5.93
2023-10-05T03:41:27.432Z,5.00
2023-10-05T03:44:02.209Z,5.97
2023-10-05T03:46:29.222Z,5.50
2023-10-05T03:49:01.347Z,5.03
2023-10-05T03:51:29.936Z,4.93
2023-10-05T03:53:57.494Z,5.77
2023-10-05T03:56:28.719Z,4.93
2023-10-05T03:58:56.050Z,5.73
2023-10-05T04:01:25.944Z,5.23
2023-10-05T04:03:53.167Z,5.70
2023-10-05T04:06:25.021Z,5.40
2023-10-05T04:08:58.864Z,5.57
2023-10-05T04:11:29.942Z,5.97
2023-10-05T04:13:58.382Z,5.30
2023-10-05T04:16:45.382Z,5.20
2023-10-05T04:19:12.557Z,5.57
2023-10-05T04:21:41.455Z,5.50
2023-10-05T04:24:09.046Z,5.43
2023-10-05T04:26:38.584Z,5.37
2023-10-05T04:29:06.513Z,5.43
2023-10-05T04:31:33.834Z,5.60
2023-10-05T04:34:01.955Z,5.40
2023-10-05T04:36:28.755Z,5.63
2023-10-05T04:38:56.223Z,4.80
2023-10-05T04:41:30.033Z,5.83
2023-10-05T04:43:58.003Z,5.80
2023-10-05T04:46:25.440Z,5.10
2023-10-05T04:49:24.762Z,5.10
2023-10-05T04:51:52.427Z,4.43
2023-10-05T04:54:20.262Z,4.90
2023-10-05T04:56:49.995Z,4.60
2023-10-05T04:59:16.746Z,5.73
2023-10-05T05:02:07.453Z,6.70
2023-10-05T05:04:53.801Z,6.30
2023-10-05T05:07:23.729Z,6.43
2023-10-05T05:09:52.009Z,6.27
2023-10-05T05:12:19.141Z,5.80
2023-10-05T05:14:47.692Z,5.57
2023-10-05T05:17:25.420Z,5.57
2023-10-05T05:19:56.984Z,5.50
2023-10-05T05:22:25.071Z,5.50
2023-10-05T05:24:51.945Z,5.37
2023-10-05T05:27:18.701Z,5.03
2023-10-05T05:29:49.442Z,5.07
2023-10-05T05:32:16.200Z,4.67
2023-10-05T05:34:44.184Z,5.03
2023-10-05T05:37:15.006Z,4.53
2023-10-05T05:39:41.957Z,5.13
2023-10-05T05:42:14.385Z,4.57
2023-10-05T05:44:42.074Z,5.10
2023-10-05T05:47:11.405Z,5.70
2023-10-05T05:49:41.799Z,4.80
2023-10-05T05:52:10.099Z,5.07
2023-10-05T05:54:37.176Z,4.43
2023-10-05T05:57:12.937Z,4.93
2023-10-05T05:59:40.837Z,5.50
2023-10-05T06:02:11.868Z,5.27
2023-10-05T06:04:41.594Z,5.60
2023-10-05T06:07:12.834Z,5.23
2023-10-05T06:09:46.605Z,5.10
2023-10-05T06:12:16.494Z,4.70
2023-10-05T06:14:43.509Z,5.37
2023-10-05T06:17:11.182Z,4.87
2023-10-05T06:19:38.332Z,5.17
2023-10-05T06:22:07.791Z,5.40
2023-10-05T06:24:43.228Z,5.43
2023-10-05T06:27:09.992Z,4.80
2023-10-05T06:29:36.802Z,5.90
2023-10-05T06:32:09.799Z,7.03
2023-10-05T06:34:39.208Z,6.70
2023-10-05T06:37:05.989Z,8.07
2023-10-05T06:39:33.337Z,7.47
2023-10-05T06:42:00.173Z,7.03
2023-10-05T06:44:32.887Z,5.90
2023-10-05T06:47:01.152Z,6.17
2023-10-05T06:49:28.478Z,5.17
2023-10-05T06:51:56.569Z,5.87
2023-10-05T06:54:23.397Z,5.17
2023-10-05T06:56:51.012Z,5.53
2023-10-05T06:59:22.112Z,5.30
2023-10-05T07:01:48.927Z,5.40
2023-10-05T07:04:18.422Z,5.90
2023-10-05T07:06:46.049Z,5.33
2023-10-05T07:09:12.900Z,5.67
2023-10-05T07:11:39.691Z,5.60
2023-10-05T07:14:06.488Z,5.07
2023-10-05T07:16:33.667Z,5.70
2023-10-05T07:19:00.553Z,5.50
2023-10-05T07:21:27.447Z,5.60
2023-10-05T07:23:54.184Z,5.63
2023-10-05T07:26:21.115Z,5.93
2023-10-05T07:28:50.041Z,6.47
2023-10-05T07:31:16.852Z,4.93
2023-10-05T07:33:43.908Z,5.90
2023-10-05T07:36:10.710Z,5.87
2023-10-05T07:38:40.278Z,5.67
2023-10-05T07:41:08.220Z,5.80
2023-10-05T07:43:35.430Z,5.27
2023-10-05T07:46:02.367Z,5.37
2023-10-05T07:48:29.473Z,5.30
2023-10-05T07:50:59.550Z,5.77
2023-10-05T07:53:26.665Z,4.67
2023-10-05T07:55:53.563Z,5.53
2023-10-05T07:58:20.474Z,4.40
2023-10-05T08:00:47.420Z,4.83
2023-10-05T08:03:14.324Z,5.37
2023-10-05T08:05:42.076Z,9.97
2023-10-05T08:08:11.599Z,7.90
2023-10-05T08:10:39.904Z,8.03
2023-10-05T08:13:07.209Z,5.80
2023-10-05T08:15:35.796Z,5.37
2023-10-05T08:18:03.119Z,4.90
2023-10-05T08:20:30.325Z,5.70
2023-10-05T08:22:58.201Z,5.40
2023-10-05T08:25:25.728Z,5.83
2023-10-05T08:27:53.254Z,5.63
2023-10-05T08:30:20.500Z,5.07
2023-10-05T08:32:49.668Z,6.17
2023-10-05T08:35:20.104Z,7.87
2023-10-05T08:37:50.631Z,7.03
2023-10-05T08:40:54.178Z,6.17
2023-10-05T08:43:21.299Z,7.57
2023-10-05T08:45:51.258Z,7.83
2023-10-05T08:48:30.008Z,8.33
2023-10-05T08:51:15.442Z,7.50
2023-10-05T08:54:06.699Z,6.43
2023-10-05T08:56:35.025Z,6.43
2023-10-05T08:59:08.730Z,6.07
2023-10-05T09:01:36.275Z,6.07
2023-10-05T09:04:11.283Z,5.50
2023-10-05T09:06:48.310Z,4.70
2023-10-05T09:09:16.387Z,4.37
2023-10-05T09:11:43.598Z,5.10
2023-10-05T09:14:14.791Z,4.40
2023-10-05T09:16:42.851Z,4.67
2023-10-05T09:19:16.294Z,5.07
2023-10-05T09:21:52.074Z,4.13
2023-10-05T09:24:23.724Z,5.13
2023-10-05T09:26:51.674Z,4.95
2023-10-05T09:29:23.311Z,4.78
2023-10-05T09:31:55.721Z,4.65
2023-10-05T09:34:37.382Z,4.85
2023-10-05T09:37:10.815Z,4.50
2023-10-05T09:39:55.198Z,4.20
2023-10-05T09:42:27.011Z,4.13
2023-10-05T09:44:58.252Z,4.50
2023-10-05T09:47:33.788Z,4.43
2023-10-05T09:50:02.498Z,4.40
2023-10-05T09:52:44.394Z,4.53
2023-10-05T09:55:14.243Z,4.85
2023-10-05T09:57:47.984Z,4.93
2023-10-05T10:00:28.462Z,4.95
2023-10-05T10:03:00.694Z,4.50
2023-10-05T10:05:32.244Z,3.97
2023-10-05T10:08:11.114Z,4.20
2023-10-05T10:10:44.883Z,4.38
2023-10-05T10:13:14.753Z,4.13
2023-10-05T10:15:46.264Z,3.58
2023-10-05T10:18:15.689Z,3.63
2023-10-05T10:20:48.966Z,3.90
2023-10-05T10:23:22.770Z,3.60
2023-10-05T10:25:53.350Z,3.83
2023-10-05T10:28:40.623Z,3.85
2023-10-05T10:31:22.625Z,3.72
2023-10-05T10:33:52.835Z,3.95
2023-10-05T10:36:21.315Z,3.80
2023-10-05T10:38:52.092Z,3.75
2023-10-05T10:41:22.177Z,3.88
2023-10-05T10:43:58.731Z,3.67
2023-10-05T10:46:31.515Z,3.65
2023-10-05T10:48:58.998Z,3.83
2023-10-05T10:51:33.598Z,4.07
2023-10-05T10:54:16.002Z,3.50
2023-10-05T10:56:43.391Z,3.53
2023-10-05T10:59:12.300Z,3.80
2023-10-05T11:01:44.797Z,3.30
2023-10-05T11:04:25.242Z,3.40
2023-10-05T11:07:11.801Z,3.77
2023-10-05T11:09:50.236Z,3.97
2023-10-05T11:12:18.434Z,3.23
2023-10-05T11:14:45.731Z,3.35
2023-10-05T11:17:36.663Z,3.27
2023-10-05T11:20:19.537Z,3.23
2023-10-05T11:22:50.927Z,3.77
2023-10-05T11:25:18.076Z,3.40
2023-10-05T11:27:49.495Z,4.00
2023-10-05T11:30:33.796Z,3.10
2023-10-05T11:33:56.270Z,2.73
2023-10-05T11:35:53.688Z,3.27
2023-10-05T11:38:23.065Z,3.73
2023-10-05T11:40:54.843Z,3.40
2023-10-05T11:43:21.786Z,2.93
2023-10-05T11:45:58.755Z,3.50
2023-10-05T11:48:49.180Z,3.80
2023-10-05T11:51:21.029Z,3.37
2023-10-05T11:53:48.626Z,2.87
2023-10-05T11:56:19.370Z,3.10
2023-10-05T11:58:48.291Z,3.10
2023-10-05T12:01:20.279Z,3.60
2023-10-05T12:03:48.525Z,3.50
2023-10-05T12:06:24.575Z,3.00
2023-10-05T12:08:54.971Z,2.90
2023-10-05T12:11:24.723Z,3.00
2023-10-05T12:14:00.207Z,2.90
2023-10-05T12:16:33.818Z,2.80
2023-10-05T12:19:14.918Z,2.73
2023-10-05T12:21:43.199Z,3.07
2023-10-05T12:24:12.564Z,2.87
2023-10-05T12:26:45.819Z,2.80
2023-10-05T12:29:15.845Z,2.87
2023-10-05T12:31:47.489Z,3.00
2023-10-05T12:34:28.862Z,2.83
2023-10-05T12:36:56.781Z,2.57
2023-10-05T12:39:30.636Z,2.40
2023-10-05T12:41:57.697Z,3.07
2023-10-05T12:44:25.048Z,2.50
2023-10-05T12:46:52.020Z,2.50
2023-10-05T12:49:19.091Z,2.60
2023-10-05T12:51:48.014Z,2.47
2023-10-05T12:54:20.881Z,2.50
2023-10-05T12:56:51.894Z,1.90
2023-10-05T12:59:20.819Z,2.63
2023-10-05T13:01:48.597Z,2.57
2023-10-05T13:04:17.333Z,3.00
2023-10-05T13:06:45.978Z,2.30
2023-10-05T13:09:14.236Z,2.80
2023-10-05T13:11:45.957Z,2.70
2023-10-05T13:14:15.666Z,2.50
2023-10-05T13:16:45.344Z,2.50
2023-10-05T13:19:14.256Z,2.30
2023-10-05T13:21:44.500Z,2.40
2023-10-05T13:24:12.560Z,3.00
2023-10-05T13:26:46.439Z,2.10
2023-10-05T13:29:17.352Z,2.43
2023-10-05T13:31:47.667Z,2.50
2023-10-05T13:34:20.993Z,2.63
2023-10-05T13:36:51.252Z,2.33
2023-10-05T13:39:22.183Z,2.40
2023-10-05T13:41:55.040Z,2.20
2023-10-05T13:44:21.857Z,2.17
2023-10-05T13:46:49.087Z,2.37
2023-10-05T13:49:18.643Z,2.33
2023-10-05T13:51:45.542Z,2.30
2023-10-05T13:54:16.663Z,2.07
2023-10-05T13:56:43.479Z,1.80
2023-10-05T13:59:18.643Z,2.70
2023-10-05T14:01:46.171Z,1.90
2023-10-05T14:04:16.013Z,1.83
2023-10-05T14:06:46.632Z,2.03
2023-10-05T14:09:14.410Z,2.00
2023-10-05T14:11:42.286Z,1.80
2023-10-05T14:14:11.266Z,2.00
2023-10-05T14:16:55.174Z,1.70
2023-10-05T14:19:24.010Z,2.10
2023-10-05T14:21:54.030Z,1.90
2023-10-05T14:24:22.244Z,1.97
2023-10-05T14:26:50.131Z,1.80
2023-10-05T14:29:20.649Z,2.10
2023-10-05T14:31:53.375Z,1.60
2023-10-05T14:34:22.554Z,1.40
2023-10-05T14:36:53.708Z,1.87
2023-10-05T14:39:24.108Z,1.57
2023-10-05T14:41:55.819Z,2.20
2023-10-05T14:44:24.781Z,2.07
2023-10-05T14:46:53.316Z,2.47
2023-10-05T14:49:22.965Z,1.80
2023-10-05T14:51:51.413Z,1.80
2023-10-05T14:54:22.411Z,2.30
2023-10-05T14:56:49.306Z,2.50
2023-10-05T14:59:16.064Z,2.60
2023-10-05T15:01:42.975Z,2.20
2023-10-05T15:04:09.715Z,2.10
2023-10-05T15:06:36.749Z,1.90
2023-10-05T15:09:03.916Z,2.07
2023-10-05T15:11:31.667Z,1.90
2023-10-05T15:13:59.439Z,1.97
2023-10-05T15:16:27.745Z,1.83
2023-10-05T15:18:55.797Z,1.97
2023-10-05T15:21:23.882Z,1.60
2023-10-05T15:23:50.618Z,1.67
2023-10-05T15:26:18.392Z,1.77
2023-10-05T15:28:45.487Z,1.97
2023-10-05T15:31:12.664Z,1.90
2023-10-05T15:33:39.564Z,1.73
2023-10-05T15:36:06.560Z,1.70
2023-10-05T15:38:35.135Z,2.00
2023-10-05T15:41:05.415Z,2.13
2023-10-05T15:43:33.089Z,1.90
2023-10-05T15:46:01.674Z,1.60
2023-10-05T15:48:28.931Z,2.10
2023-10-05T15:50:57.345Z,2.03
2023-10-05T15:53:24.393Z,1.83
2023-10-05T15:55:53.097Z,1.97
2023-10-05T15:58:20.223Z,2.13
2023-10-05T16:00:47.067Z,2.00
2023-10-05T16:03:15.697Z,1.80
2023-10-05T16:05:43.937Z,2.07
2023-10-05T16:08:11.722Z,2.00
2023-10-05T16:10:39.690Z,2.00
2023-10-05T16:13:10.196Z,1.60
2023-10-05T16:15:39.739Z,2.00
2023-10-05T16:18:09.033Z,1.97
2023-10-05T16:20:38.841Z,2.00
2023-10-05T16:23:07.849Z,1.90
2023-10-05T16:25:37.006Z,2.07
2023-10-05T16:28:08.972Z,2.07
2023-10-05T16:30:36.890Z,1.83
2023-10-05T16:33:06.704Z,2.03
2023-10-05T16:35:34.766Z,2.30
2023-10-05T16:38:01.807Z,1.90
2023-10-05T16:40:30.001Z,2.00
2023-10-05T16:42:58.978Z,2.17
2023-10-05T16:45:26.510Z,1.70
2023-10-05T16:47:57.753Z,1.93
2023-10-05T16:50:26.815Z,2.30
2023-10-05T16:52:55.416Z,2.10
2023-10-05T16:55:22.830Z,2.17
2023-10-05T16:57:52.234Z,2.60
2023-10-05T17:00:24.192Z,2.80
2023-10-05T17:02:53.267Z,2.50
2023-10-05T17:05:23.459Z,2.73
2023-10-05T17:07:52.484Z,2.97
2023-10-05T17:10:19.781Z,3.00
2023-10-05T17:12:47.536Z,2.60
2023-10-05T17:15:17.841Z,3.40
2023-10-05T17:17:45.423Z,2.90
2023-10-05T17:20:12.670Z,2.97
2023-10-05T17:22:40.107Z,3.20
2023-10-05T17:25:08.918Z,3.10
2023-10-05T17:27:36.007Z,3.40
2023-10-05T17:30:04.278Z,4.27
2023-10-05T17:32:33.874Z,4.60
2023-10-05T17:35:01.642Z,4.40
2023-10-05T17:37:29.914Z,4.10
2023-10-05T17:39:57.969Z,4.53
2023-10-05T17:42:26.162Z,4.27
2023-10-05T17:44:53.816Z,4.50
2023-10-05T17:47:24.180Z,4.40
2023-10-05T17:49:52.522Z,4.10
2023-10-05T17:52:20.256Z,4.53
2023-10-05T17:54:48.855Z,3.80
2023-10-05T17:57:16.082Z,4.43
2023-10-05T17:59:43.036Z,4.27
2023-10-05T18:02:10.097Z,4.10
2023-10-05T18:04:37.156Z,6.17
2023-10-05T18:07:07.553Z,6.23
2023-10-05T18:09:38.089Z,6.17
2023-10-05T18:12:09.188Z,5.73
2023-10-05T18:14:37.154Z,5.83
2023-10-05T18:17:06.322Z,6.07
2023-10-05T18:19:33.819Z,6.00
2023-10-05T18:22:01.241Z,6.20
2023-10-05T18:24:28.139Z,6.60
2023-10-05T18:26:54.990Z,8.13
2023-10-05T18:29:21.761Z,8.20
2023-10-05T18:31:48.810Z,9.40
2023-10-05T18:34:15.902Z,8.30
2023-10-05T18:36:42.721Z,8.60
2023-10-05T18:39:14.969Z,8.13
2023-10-05T18:41:43.888Z,10.10
2023-10-05T18:44:10.965Z,8.47
2023-10-05T18:46:38.062Z,8.57
2023-10-05T18:49:08.515Z,7.57
2023-10-05T18:51:35.876Z,7.20
2023-10-05T18:54:02.760Z,5.80
2023-10-05T18:56:33.016Z,5.57
2023-10-05T18:59:02.191Z,5.70
2023-10-05T19:01:29.545Z,5.77
2023-10-05T19:03:56.436Z,5.70
2023-10-05T19:06:24.449Z,6.97
2023-10-05T19:08:51.350Z,7.60
2023-10-05T19:11:20.781Z,7.23
2023-10-05T19:13:48.828Z,7.70
2023-10-05T19:16:16.018Z,6.70
2023-10-05T19:18:42.783Z,6.90
2023-10-05T19:21:14.662Z,5.30
2023-10-05T19:23:43.343Z,5.23
2023-10-05T19:26:10.183Z,5.77
2023-10-05T19:28:37.339Z,5.53
2023-10-05T19:31:04.600Z,5.90
2023-10-05T19:33:34.320Z,5.20
2023-10-05T19:36:01.157Z,4.80
2023-10-05T19:38:27.979Z,4.30
2023-10-05T19:40:54.937Z,4.37
2023-10-05T19:43:22.131Z,5.37
2023-10-05T19:45:49.068Z,5.30
2023-10-05T19:48:16.597Z,6.03
2023-10-05T19:50:44.032Z,6.10
2023-10-05T19:53:10.975Z,5.53
2023-10-05T19:55:37.770Z,6.20
2023-10-05T19:58:06.431Z,6.30
2023-10-05T20:00:36.612Z,6.23
2023-10-05T20:03:04.330Z,6.37
2023-10-05T20:05:31.222Z,6.27
2023-10-05T20:07:58.461Z,6.63
2023-10-05T20:10:35.072Z,6.07
2023-10-05T20:13:06.324Z,5.97
2023-10-05T20:15:43.455Z,5.53
2023-10-05T20:18:10.414Z,5.50
2023-10-05T20:20:37.748Z,5.57
2023-10-05T20:23:06.117Z,5.60
2023-10-05T20:25:33.559Z,5.23
2023-10-05T20:28:00.485Z,5.60
2023-10-05T20:30:28.301Z,7.17
2023-10-05T20:32:55.117Z,7.10
2023-10-05T20:35:22.169Z,6.77
2023-10-05T20:37:48.985Z,7.20
2023-10-05T20:40:15.779Z,8.43
2023-10-05T20:42:42.839Z,8.60
2023-10-05T20:45:10.593Z,7.90
2023-10-05T20:47:37.545Z,7.37
2023-10-05T20:50:06.082Z,7.37
2023-10-05T20:52:33.019Z,7.40
2023-10-05T20:54:59.832Z,7.67
2023-10-05T20:57:26.625Z,6.93
2023-10-05T20:59:54.514Z,5.93
2023-10-05T21:02:21.421Z,5.87
2023-10-05T21:04:48.359Z,6.77
2023-10-05T21:07:15.217Z,5.77
2023-10-05T21:09:42.018Z,6.47
2023-10-05T21:12:08.970Z,5.40
2023-10-05T21:14:35.777Z,6.03
2023-10-05T21:17:02.563Z,6.50
2023-10-05T21:19:29.475Z,6.80
2023-10-05T21:21:56.278Z,6.47
2023-10-05T21:24:23.047Z,6.77
2023-10-05T21:26:49.756Z,7.70
2023-10-05T21:29:16.542Z,7.10
2023-10-05T21:31:43.477Z,7.20
2023-10-05T21:34:10.426Z,7.70
2023-10-05T21:36:37.923Z,7.40
2023-10-05T21:39:04.981Z,7.40
2023-10-05T21:41:32.027Z,6.87
2023-10-05T21:43:59.515Z,7.33
2023-10-05T21:46:27.866Z,6.27
2023-10-05T21:48:54.927Z,6.93
2023-10-05T21:51:22.083Z,7.23
2023-10-05T21:53:48.825Z,6.80
2023-10-05T21:56:16.953Z,7.77
2023-10-05T21:58:43.818Z,7.13
2023-10-05T22:01:11.554Z,6.77
2023-10-05T22:03:39.233Z,6.77
2023-10-05T22:06:07.028Z,6.07
2023-10-05T22:08:33.971Z,6.07
2023-10-05T22:11:02.503Z,6.23
2023-10-05T22:13:29.457Z,7.70
2023-10-05T22:15:56.200Z,7.90
2023-10-05T22:18:22.941Z,8.63
2023-10-05T22:20:49.686Z,9.37
2023-10-05T22:23:17.596Z,9.77
2023-10-05T22:25:44.436Z,9.50
2023-10-05T22:28:11.282Z,8.27
2023-10-05T22:30:41.326Z,9.37
2023-10-05T22:33:10.387Z,8.30
2023-10-05T22:35:38.914Z,7.83
2023-10-05T22:38:06.152Z,7.40
2023-10-05T22:40:36.451Z,8.07
2023-10-05T22:43:03.639Z,7.57
2023-10-05T22:45:30.735Z,7.80
2023-10-05T22:47:58.112Z,8.60
2023-10-05T22:50:24.990Z,8.30
2023-10-05T22:52:52.105Z,9.33
2023-10-05T22:55:19.150Z,8.27
2023-10-05T22:57:45.851Z,8.83
2023-10-05T23:00:13.556Z,8.77
2023-10-05T23:02:40.552Z,8.50
2023-10-05T23:05:08.115Z,8.10
2023-10-05T23:07:35.429Z,7.40
2023-10-05T23:10:06.483Z,7.50
2023-10-05T23:12:34.752Z,7.47
2023-10-05T23:15:02.307Z,8.23
2023-10-05T23:17:29.473Z,8.80
2023-10-05T23:19:56.394Z,7.40
2023-10-05T23:22:23.125Z,8.13
2023-10-05T23:24:57.010Z,8.20
2023-10-05T23:27:23.881Z,7.23
2023-10-05T23:29:50.536Z,7.67
2023-10-05T23:32:17.304Z,7.83
2023-10-05T23:34:44.755Z,7.93
2023-10-05T23:37:12.815Z,8.20
2023-10-05T23:39:41.412Z,7.80
2023-10-05T23:42:18.434Z,7.37
2023-10-05T23:44:47.681Z,7.10
2023-10-05T23:47:23.973Z,7.37
2023-10-05T23:49:55.029Z,6.97
2023-10-05T23:52:22.661Z,6.77
2023-10-05T23:54:49.394Z,6.70
2023-10-05T23:57:21.108Z,6.67
2023-10-05T23:59:48.850Z,5.83
